sensor_id;sensor_type;location;lat;lon;timestamp;pressure;altitude;pressure_sealevel;temperature;humidity
51229;BME280;37304;52.216;6.874;2022-10-26T00:00:04;101267.44;;;9.53;100.00
51229;BME280;37304;52.216;6.874;2022-10-26T00:05:05;101284.72;;;9.52;100.00
51229;BME280;37304;52.216;6.874;2022-10-26T00:10:06;101280.41;;;9.48;100.00
51229;BME280;37304;52.216;6.874;2022-10-26T00:15:07;101275.25;;;9.46;100.00
51229;BME280;37304;52.216;6.874;2022-10-26T00:20:08;101268.34;;;9.45;100.00
51229;BME280;37304;52.216;6.874;2022-10-26T00:25:08;101265.72;;;9.44;100.00
51229;BME280;37304;52.216;6.874;2022-10-26T00:30:09;101264.94;;;9.32;100.00
51229;BME280;37304;52.216;6.874;2022-10-26T00:35:09;101263.22;;;9.31;100.00
51229;BME280;37304;52.216;6.874;2022-10-26T00:40:09;101264.09;;;9.29;100.00
51229;BME280;37304;52.216;6.874;2022-10-26T00:45:18;101261.50;;;9.29;100.00
51229;BME280;37304;52.216;6.874;2022-10-26T00:50:35;101258.03;;;9.30;100.00
51229;BME280;37304;52.216;6.874;2022-10-26T00:55:42;101257.19;;;9.28;100.00
51229;BME280;37304;52.216;6.874;2022-10-26T01:00:43;101248.50;;;9.30;100.00
51229;BME280;37304;52.216;6.874;2022-10-26T01:05:44;101261.44;;;9.37;100.00
51229;BME280;37304;52.216;6.874;2022-10-26T01:10:46;101251.94;;;9.37;100.00
51229;BME280;37304;52.216;6.874;2022-10-26T01:15:50;101246.75;;;9.40;100.00
51229;BME280;37304;52.216;6.874;2022-10-26T01:31:03;101221.63;;;9.44;100.00
51229;BME280;37304;52.216;6.874;2022-10-26T01:41:34;101220.69;;;9.54;100.00
51229;BME280;37304;52.216;6.874;2022-10-26T01:46:38;101211.19;;;9.55;100.00
51229;BME280;37304;52.216;6.874;2022-10-26T01:51:42;101211.16;;;9.59;100.00
51229;BME280;37304;52.216;6.874;2022-10-26T01:56:49;101206.84;;;9.58;100.00
51229;BME280;37304;52.216;6.874;2022-10-26T02:12:53;101192.22;;;9.50;100.00
51229;BME280;37304;52.216;6.874;2022-10-26T02:18:05;101189.59;;;9.48;100.00
51229;BME280;37304;52.216;6.874;2022-10-26T02:23:09;101186.16;;;9.46;100.00
51229;BME280;37304;52.216;6.874;2022-10-26T02:28:13;101171.47;;;9.45;100.00
51229;BME280;37304;52.216;6.874;2022-10-26T02:33:15;101180.13;;;9.45;100.00
51229;BME280;37304;52.216;6.874;2022-10-26T02:38:18;101162.78;;;9.49;100.00
51229;BME280;37304;52.216;6.874;2022-10-26T02:43:22;101162.78;;;9.52;100.00
51229;BME280;37304;52.216;6.874;2022-10-26T02:48:23;101162.78;;;9.52;100.00
51229;BME280;37304;52.216;6.874;2022-10-26T02:53:34;101149.84;;;9.47;100.00
51229;BME280;37304;52.216;6.874;2022-10-26T02:58:41;101152.41;;;9.49;100.00
51229;BME280;37304;52.216;6.874;2022-10-26T03:03:47;101155.03;;;9.46;100.00
51229;BME280;37304;52.216;6.874;2022-10-26T03:08:48;101161.16;;;9.36;100.00
51229;BME280;37304;52.216;6.874;2022-10-26T03:13:51;101156.81;;;9.38;100.00
51229;BME280;37304;52.216;6.874;2022-10-26T03:18:52;101163.75;;;9.37;100.00
51229;BME280;37304;52.216;6.874;2022-10-26T03:23:52;101162.88;;;9.38;100.00
51229;BME280;37304;52.216;6.874;2022-10-26T03:28:52;101162.00;;;9.38;100.00
51229;BME280;37304;52.216;6.874;2022-10-26T03:33:53;101168.06;;;9.37;100.00
51229;BME280;37304;52.216;6.874;2022-10-26T03:38:53;101157.69;;;9.37;100.00
51229;BME280;37304;52.216;6.874;2022-10-26T03:43:53;101159.38;;;9.41;100.00
51229;BME280;37304;52.216;6.874;2022-10-26T03:48:54;101162.84;;;9.43;100.00
51229;BME280;37304;52.216;6.874;2022-10-26T03:53:54;101144.69;;;9.44;100.00
51229;BME280;37304;52.216;6.874;2022-10-26T03:58:54;101137.75;;;9.42;100.00
51229;BME280;37304;52.216;6.874;2022-10-26T04:03:55;101132.59;;;9.43;100.00
51229;BME280;37304;52.216;6.874;2022-10-26T04:08:55;101125.63;;;9.47;100.00
51229;BME280;37304;52.216;6.874;2022-10-26T04:14:01;101123.00;;;9.50;100.00
51229;BME280;37304;52.216;6.874;2022-10-26T04:19:01;101115.22;;;9.50;100.00
51229;BME280;37304;52.216;6.874;2022-10-26T04:24:02;101115.19;;;9.53;100.00
51229;BME280;37304;52.216;6.874;2022-10-26T04:29:02;101110.84;;;9.57;100.00
51229;BME280;37304;52.216;6.874;2022-10-26T04:34:06;101117.72;;;9.66;100.00
51229;BME280;37304;52.216;6.874;2022-10-26T04:39:06;101115.97;;;9.66;100.00
51229;BME280;37304;52.216;6.874;2022-10-26T04:44:07;101127.22;;;9.67;100.00
51229;BME280;37304;52.216;6.874;2022-10-26T04:49:07;101120.31;;;9.64;100.00
51229;BME280;37304;52.216;6.874;2022-10-26T04:54:07;101120.31;;;9.64;100.00
51229;BME280;37304;52.216;6.874;2022-10-26T04:59:08;101120.34;;;9.63;100.00
51229;BME280;37304;52.216;6.874;2022-10-26T05:04:08;101115.09;;;9.67;100.00
51229;BME280;37304;52.216;6.874;2022-10-26T05:09:08;101118.53;;;9.69;100.00
51229;BME280;37304;52.216;6.874;2022-10-26T05:14:09;101124.56;;;9.73;100.00
51229;BME280;37304;52.216;6.874;2022-10-26T05:19:09;101125.38;;;9.76;100.00
51229;BME280;37304;52.216;6.874;2022-10-26T05:24:10;101132.31;;;9.77;100.00
51229;BME280;37304;52.216;6.874;2022-10-26T05:29:10;101127.06;;;9.81;100.00
51229;BME280;37304;52.216;6.874;2022-10-26T05:34:10;101122.75;;;9.81;100.00
51229;BME280;37304;52.216;6.874;2022-10-26T05:39:11;101119.22;;;9.87;100.00
51229;BME280;37304;52.216;6.874;2022-10-26T05:44:11;101129.63;;;9.88;100.00
51229;BME280;37304;52.216;6.874;2022-10-26T05:49:11;101121.81;;;9.91;100.00
51229;BME280;37304;52.216;6.874;2022-10-26T05:54:12;101124.41;;;9.91;100.00
51229;BME280;37304;52.216;6.874;2022-10-26T05:59:13;101126.09;;;9.97;100.00
51229;BME280;37304;52.216;6.874;2022-10-26T06:09:20;101124.38;;;9.96;100.00
51229;BME280;37304;52.216;6.874;2022-10-26T06:14:21;101125.25;;;9.94;100.00
51229;BME280;37304;52.216;6.874;2022-10-26T06:30:06;101130.53;;;9.83;100.00
51229;BME280;37304;52.216;6.874;2022-10-26T06:35:34;101139.19;;;9.82;100.00
51229;BME280;37304;52.216;6.874;2022-10-26T06:40:38;101138.31;;;9.83;100.00
51229;BME280;37304;52.216;6.874;2022-10-26T06:45:42;101134.84;;;9.85;100.00
51229;BME280;37304;52.216;6.874;2022-10-26T06:50:51;101143.53;;;9.81;100.00
51229;BME280;37304;52.216;6.874;2022-10-26T06:55:52;101142.66;;;9.81;100.00
51229;BME280;37304;52.216;6.874;2022-10-26T07:00:54;101143.50;;;9.83;100.00
51229;BME280;37304;52.216;6.874;2022-10-26T07:05:55;101154.69;;;9.89;100.00
51229;BME280;37304;52.216;6.874;2022-10-26T07:10:55;101153.84;;;9.87;100.00
51229;BME280;37304;52.216;6.874;2022-10-26T07:15:56;101162.41;;;9.99;100.00
51229;BME280;37304;52.216;6.874;2022-10-26T07:20:57;101161.53;;;10.01;100.00
51229;BME280;37304;52.216;6.874;2022-10-26T07:25:59;101159.66;;;10.16;100.00
51229;BME280;37304;52.216;6.874;2022-10-26T07:30:59;101173.41;;;10.26;100.00
51229;BME280;37304;52.216;6.874;2022-10-26T07:35:59;101164.66;;;10.36;100.00
51229;BME280;37304;52.216;6.874;2022-10-26T07:41:00;101157.56;;;10.52;100.00
51229;BME280;37304;52.216;6.874;2022-10-26T07:46:00;101154.69;;;10.75;100.00
51229;BME280;37304;52.216;6.874;2022-10-26T07:51:01;101151.00;;;10.92;100.00
51229;BME280;37304;52.216;6.874;2022-10-26T07:56:01;101141.28;;;11.08;100.00
51229;BME280;37304;52.216;6.874;2022-10-26T08:01:13;101134.94;;;11.26;100.00
51229;BME280;37304;52.216;6.874;2022-10-26T08:06:13;101125.13;;;11.44;100.00
51229;BME280;37304;52.216;6.874;2022-10-26T08:11:15;101123.16;;;11.60;100.00
51229;BME280;37304;52.216;6.874;2022-10-26T08:16:16;101121.16;;;11.74;100.00
51229;BME280;37304;52.216;6.874;2022-10-26T08:21:17;101122.72;;;11.86;100.00
51229;BME280;37304;52.216;6.874;2022-10-26T08:26:17;101131.94;;;12.06;100.00
51229;BME280;37304;52.216;6.874;2022-10-26T08:31:17;101129.28;;;12.09;100.00
51229;BME280;37304;52.216;6.874;2022-10-26T08:36:23;101130.94;;;13.00;100.00
51229;BME280;37304;52.216;6.874;2022-10-26T08:41:45;101122.28;;;14.71;100.00
51229;BME280;37304;52.216;6.874;2022-10-26T08:46:50;101109.94;;;15.85;100.00
51229;BME280;37304;52.216;6.874;2022-10-26T08:51:57;101111.47;;;17.98;100.00
51229;BME280;37304;52.216;6.874;2022-10-26T08:57:03;101102.34;;;19.04;100.00
51229;BME280;37304;52.216;6.874;2022-10-26T09:02:11;101116.19;;;19.08;100.00
51229;BME280;37304;52.216;6.874;2022-10-26T09:12:40;101112.66;;;22.47;100.00
51229;BME280;37304;52.216;6.874;2022-10-26T09:17:52;101128.03;;;22.84;100.00
51229;BME280;37304;52.216;6.874;2022-10-26T09:28:18;101114.09;;;24.91;94.39
51229;BME280;37304;52.216;6.874;2022-10-26T09:33:21;101127.09;;;24.69;91.97
51229;BME280;37304;52.216;6.874;2022-10-26T09:38:29;101135.22;;;25.41;92.94
51229;BME280;37304;52.216;6.874;2022-10-26T09:43:53;101149.81;;;26.07;82.48
51229;BME280;37304;52.216;6.874;2022-10-26T09:48:59;101146.41;;;25.22;72.37
51229;BME280;37304;52.216;6.874;2022-10-26T09:54:00;101149.00;;;26.52;78.51
51229;BME280;37304;52.216;6.874;2022-10-26T09:59:05;101142.91;;;26.84;73.22
51229;BME280;37304;52.216;6.874;2022-10-26T10:09:17;101151.50;;;24.11;73.74
51229;BME280;37304;52.216;6.874;2022-10-26T10:14:18;101169.47;;;24.34;73.52
51229;BME280;37304;52.216;6.874;2022-10-26T10:19:34;101173.25;;;23.91;76.95
51229;BME280;37304;52.216;6.874;2022-10-26T10:24:39;101157.63;;;23.33;80.25
51229;BME280;37304;52.216;6.874;2022-10-26T10:29:46;101176.13;;;22.34;87.93
51229;BME280;37304;52.216;6.874;2022-10-26T10:34:51;101169.56;;;20.70;99.09
51229;BME280;37304;52.216;6.874;2022-10-26T10:39:57;101171.25;;;19.68;100.00
51229;BME280;37304;52.216;6.874;2022-10-26T10:44:58;101163.38;;;19.31;100.00
51229;BME280;37304;52.216;6.874;2022-10-26T10:50:01;101161.03;;;18.68;100.00
51229;BME280;37304;52.216;6.874;2022-10-26T11:00:12;101178.63;;;18.46;100.00
51229;BME280;37304;52.216;6.874;2022-10-26T11:05:23;101175.72;;;18.53;100.00
51229;BME280;37304;52.216;6.874;2022-10-26T11:10:30;101166.06;;;18.13;100.00
51229;BME280;37304;52.216;6.874;2022-10-26T11:15:35;101169.47;;;18.15;100.00
51229;BME280;37304;52.216;6.874;2022-10-26T11:20:41;101179.41;;;18.29;100.00
51229;BME280;37304;52.216;6.874;2022-10-26T11:30:52;101191.22;;;18.19;100.00
51229;BME280;37304;52.216;6.874;2022-10-26T11:36:04;101195.44;;;18.23;100.00
51229;BME280;37304;52.216;6.874;2022-10-26T11:41:12;101198.81;;;18.06;100.00
51229;BME280;37304;52.216;6.874;2022-10-26T11:46:20;101206.94;;;18.21;100.00
51229;BME280;37304;52.216;6.874;2022-10-26T11:51:41;101208.84;;;18.17;100.00
51229;BME280;37304;52.216;6.874;2022-10-26T11:56:47;101211.00;;;18.48;100.00
51229;BME280;37304;52.216;6.874;2022-10-26T12:01:50;101209.31;;;19.62;100.00
51229;BME280;37304;52.216;6.874;2022-10-26T12:06:53;101218.13;;;20.16;100.00
51229;BME280;37304;52.216;6.874;2022-10-26T12:11:57;101227.81;;;20.84;100.00
51229;BME280;37304;52.216;6.874;2022-10-26T12:22:14;101237.91;;;19.89;100.00
51229;BME280;37304;52.216;6.874;2022-10-26T12:27:48;101248.44;;;19.53;100.00
51229;BME280;37304;52.216;6.874;2022-10-26T12:32:51;101256.38;;;19.33;100.00
51229;BME280;37304;52.216;6.874;2022-10-26T12:37:52;101265.63;;;19.04;100.00
51229;BME280;37304;52.216;6.874;2022-10-26T12:42:52;101263.44;;;18.93;100.00
51229;BME280;37304;52.216;6.874;2022-10-26T13:03:47;101277.78;;;18.67;100.00
51229;BME280;37304;52.216;6.874;2022-10-26T13:08:54;101267.59;;;18.59;100.00
51229;BME280;37304;52.216;6.874;2022-10-26T13:13:58;101283.03;;;18.67;100.00
51229;BME280;37304;52.216;6.874;2022-10-26T13:19:00;101285.34;;;18.74;100.00
51229;BME280;37304;52.216;6.874;2022-10-26T13:24:00;101288.16;;;18.70;100.00
51229;BME280;37304;52.216;6.874;2022-10-26T13:29:02;101295.09;;;18.72;100.00
51229;BME280;37304;52.216;6.874;2022-10-26T13:34:09;101292.25;;;18.77;100.00
51229;BME280;37304;52.216;6.874;2022-10-26T13:39:23;101287.72;;;18.60;100.00
51229;BME280;37304;52.216;6.874;2022-10-26T13:49:36;101279.88;;;18.58;100.00
51229;BME280;37304;52.216;6.874;2022-10-26T13:54:43;101293.22;;;18.54;100.00
51229;BME280;37304;52.216;6.874;2022-10-26T13:59:46;101293.50;;;18.47;100.00
51229;BME280;37304;52.216;6.874;2022-10-26T14:04:51;101300.81;;;18.41;100.00
51229;BME280;37304;52.216;6.874;2022-10-26T14:09:54;101301.75;;;18.40;100.00
51229;BME280;37304;52.216;6.874;2022-10-26T14:15:15;101307.72;;;18.43;100.00
51229;BME280;37304;52.216;6.874;2022-10-26T14:20:19;101313.84;;;18.23;100.00
51229;BME280;37304;52.216;6.874;2022-10-26T14:25:28;101308.31;;;18.29;100.00
51229;BME280;37304;52.216;6.874;2022-10-26T14:30:31;101315.84;;;18.16;100.00
51229;BME280;37304;52.216;6.874;2022-10-26T14:35:33;101331.63;;;18.16;100.00
51229;BME280;37304;52.216;6.874;2022-10-26T14:40:35;101321.25;;;18.13;100.00
51229;BME280;37304;52.216;6.874;2022-10-26T14:45:37;101331.88;;;18.10;100.00
51229;BME280;37304;52.216;6.874;2022-10-26T14:50:40;101331.59;;;17.94;100.00
51229;BME280;37304;52.216;6.874;2022-10-26T14:55:48;101349.38;;;17.87;100.00
51229;BME280;37304;52.216;6.874;2022-10-26T15:11:27;101369.69;;;17.84;100.00
51229;BME280;37304;52.216;6.874;2022-10-26T15:16:33;101379.78;;;17.72;100.00
51229;BME280;37304;52.216;6.874;2022-10-26T15:21:54;101388.94;;;17.62;100.00
51229;BME280;37304;52.216;6.874;2022-10-26T15:26:55;101395.03;;;17.63;100.00
51229;BME280;37304;52.216;6.874;2022-10-26T15:32:04;101400.09;;;17.43;100.00
51229;BME280;37304;52.216;6.874;2022-10-26T15:37:07;101411.88;;;17.33;100.00
51229;BME280;37304;52.216;6.874;2022-10-26T15:42:12;101414.81;;;17.24;100.00
51229;BME280;37304;52.216;6.874;2022-10-26T15:47:17;101424.63;;;17.18;100.00
51229;BME280;37304;52.216;6.874;2022-10-26T15:52:19;101425.59;;;17.16;100.00
51229;BME280;37304;52.216;6.874;2022-10-26T15:57:19;101433.66;;;17.11;100.00
51229;BME280;37304;52.216;6.874;2022-10-26T16:02:19;101438.41;;;17.00;100.00
51229;BME280;37304;52.216;6.874;2022-10-26T16:07:21;101442.13;;;16.93;100.00
51229;BME280;37304;52.216;6.874;2022-10-26T16:12:24;101446.16;;;16.76;100.00
51229;BME280;37304;52.216;6.874;2022-10-26T16:17:25;101457.88;;;16.66;100.00
51229;BME280;37304;52.216;6.874;2022-10-26T16:22:25;101462.38;;;16.62;100.00
51229;BME280;37304;52.216;6.874;2022-10-26T16:27:25;101470.63;;;16.50;100.00
51229;BME280;37304;52.216;6.874;2022-10-26T16:32:26;101476.41;;;16.33;100.00
51229;BME280;37304;52.216;6.874;2022-10-26T16:37:30;101482.78;;;16.24;100.00
51229;BME280;37304;52.216;6.874;2022-10-26T16:42:31;101487.72;;;16.05;100.00
51229;BME280;37304;52.216;6.874;2022-10-26T16:47:32;101503.88;;;15.89;100.00
51229;BME280;37304;52.216;6.874;2022-10-26T16:52:35;101508.47;;;15.81;100.00
51229;BME280;37304;52.216;6.874;2022-10-26T16:57:36;101517.56;;;15.67;100.00
51229;BME280;37304;52.216;6.874;2022-10-26T17:02:36;101526.41;;;15.63;100.00
51229;BME280;37304;52.216;6.874;2022-10-26T17:07:37;101529.22;;;15.55;100.00
51229;BME280;37304;52.216;6.874;2022-10-26T17:12:37;101539.69;;;15.55;100.00
51229;BME280;37304;52.216;6.874;2022-10-26T17:17:37;101542.44;;;15.51;100.00
51229;BME280;37304;52.216;6.874;2022-10-26T17:22:39;101543.47;;;15.45;100.00
51229;BME280;37304;52.216;6.874;2022-10-26T17:27:39;101559.34;;;15.39;100.00
51229;BME280;37304;52.216;6.874;2022-10-26T17:32:40;101582.69;;;15.47;100.00
51229;BME280;37304;52.216;6.874;2022-10-26T17:37:40;101594.91;;;15.48;100.00
51229;BME280;37304;52.216;6.874;2022-10-26T17:42:43;101601.50;;;15.63;100.00
51229;BME280;37304;52.216;6.874;2022-10-26T17:47:48;101603.16;;;15.67;100.00
51229;BME280;37304;52.216;6.874;2022-10-26T17:52:48;101610.75;;;15.78;100.00
51229;BME280;37304;52.216;6.874;2022-10-26T17:57:49;101633.22;;;15.86;100.00
51229;BME280;37304;52.216;6.874;2022-10-26T18:02:52;101628.72;;;15.93;100.00
51229;BME280;37304;52.216;6.874;2022-10-26T18:07:52;101639.03;;;15.99;100.00
51229;BME280;37304;52.216;6.874;2022-10-26T18:12:53;101640.59;;;16.07;100.00
51229;BME280;37304;52.216;6.874;2022-10-26T18:17:56;101644.94;;;16.08;100.00
51229;BME280;37304;52.216;6.874;2022-10-26T18:22:58;101644.16;;;16.04;100.00
51229;BME280;37304;52.216;6.874;2022-10-26T18:27:58;101657.44;;;15.98;100.00
51229;BME280;37304;52.216;6.874;2022-10-26T18:33:00;101665.50;;;15.90;100.00
51229;BME280;37304;52.216;6.874;2022-10-26T18:38:03;101666.44;;;15.86;100.00
51229;BME280;37304;52.216;6.874;2022-10-26T18:43:03;101677.03;;;15.81;100.00
51229;BME280;37304;52.216;6.874;2022-10-26T18:48:04;101684.28;;;15.71;100.00
51229;BME280;37304;52.216;6.874;2022-10-26T18:53:04;101687.66;;;15.75;100.00
51229;BME280;37304;52.216;6.874;2022-10-26T18:58:14;101688.63;;;15.72;100.00
51229;BME280;37304;52.216;6.874;2022-10-26T19:03:14;101703.69;;;15.64;100.00
51229;BME280;37304;52.216;6.874;2022-10-26T19:08:15;101705.56;;;15.57;100.00
51229;BME280;37304;52.216;6.874;2022-10-26T19:13:15;101711.03;;;15.48;100.00
51229;BME280;37304;52.216;6.874;2022-10-26T19:18:16;101710.38;;;15.38;100.00
51229;BME280;37304;52.216;6.874;2022-10-26T19:23:16;101714.84;;;15.35;100.00
51229;BME280;37304;52.216;6.874;2022-10-26T19:28:17;101717.47;;;15.33;100.00
51229;BME280;37304;52.216;6.874;2022-10-26T19:33:17;101721.88;;;15.31;100.00
51229;BME280;37304;52.216;6.874;2022-10-26T19:38:19;101715.97;;;15.23;100.00
51229;BME280;37304;52.216;6.874;2022-10-26T19:43:20;101726.56;;;15.17;100.00
51229;BME280;37304;52.216;6.874;2022-10-26T19:48:21;101728.38;;;15.13;100.00
51229;BME280;37304;52.216;6.874;2022-10-26T19:53:21;101747.59;;;15.13;100.00
51229;BME280;37304;52.216;6.874;2022-10-26T19:58:27;101744.34;;;15.02;100.00
51229;BME280;37304;52.216;6.874;2022-10-26T20:03:28;101744.22;;;15.08;100.00
51229;BME280;37304;52.216;6.874;2022-10-26T20:08:29;101747.78;;;15.04;100.00
51229;BME280;37304;52.216;6.874;2022-10-26T20:13:29;101754.81;;;15.00;100.00
51229;BME280;37304;52.216;6.874;2022-10-26T20:18:30;101755.72;;;15.01;100.00
51229;BME280;37304;52.216;6.874;2022-10-26T20:23:30;101766.13;;;15.04;100.00
51229;BME280;37304;52.216;6.874;2022-10-26T20:28:31;101768.84;;;14.98;100.00
51229;BME280;37304;52.216;6.874;2022-10-26T20:33:31;101771.44;;;14.99;100.00
51229;BME280;37304;52.216;6.874;2022-10-26T20:38:32;101772.59;;;14.84;100.00
51229;BME280;37304;52.216;6.874;2022-10-26T20:43:33;101776.88;;;14.89;100.00
51229;BME280;37304;52.216;6.874;2022-10-26T20:48:33;101787.41;;;14.85;100.00
51229;BME280;37304;52.216;6.874;2022-10-26T20:53:37;101783.25;;;14.75;100.00
51229;BME280;37304;52.216;6.874;2022-10-26T20:58:43;101795.22;;;14.87;100.00
51229;BME280;37304;52.216;6.874;2022-10-26T21:03:44;101787.38;;;14.87;100.00
51229;BME280;37304;52.216;6.874;2022-10-26T21:08:44;101813.66;;;14.81;100.00
51229;BME280;37304;52.216;6.874;2022-10-26T21:13:47;101813.00;;;14.68;100.00
51229;BME280;37304;52.216;6.874;2022-10-26T21:18:48;101825.41;;;14.56;100.00
51229;BME280;37304;52.216;6.874;2022-10-26T21:23:49;101831.38;;;14.65;100.00
51229;BME280;37304;52.216;6.874;2022-10-26T21:28:50;101828.97;;;14.52;100.00
51229;BME280;37304;52.216;6.874;2022-10-26T21:33:50;101831.53;;;14.55;100.00
51229;BME280;37304;52.216;6.874;2022-10-26T21:38:51;101835.81;;;14.60;100.00
51229;BME280;37304;52.216;6.874;2022-10-26T21:43:51;101833.31;;;14.53;100.00
51229;BME280;37304;52.216;6.874;2022-10-26T21:48:52;101848.13;;;14.54;100.00
51229;BME280;37304;52.216;6.874;2022-10-26T21:53:52;101842.94;;;14.51;100.00
51229;BME280;37304;52.216;6.874;2022-10-26T21:58:52;101840.28;;;14.54;100.00
51229;BME280;37304;52.216;6.874;2022-10-26T22:03:53;101840.34;;;14.50;100.00
51229;BME280;37304;52.216;6.874;2022-10-26T22:08:53;101849.13;;;14.46;100.00
51229;BME280;37304;52.216;6.874;2022-10-26T22:13:54;101836.09;;;14.44;100.00
51229;BME280;37304;52.216;6.874;2022-10-26T22:18:56;101840.66;;;14.33;100.00
51229;BME280;37304;52.216;6.874;2022-10-26T22:23:57;101851.94;;;14.35;100.00
51229;BME280;37304;52.216;6.874;2022-10-26T22:28:57;101843.31;;;14.28;100.00
51229;BME280;37304;52.216;6.874;2022-10-26T22:34:06;101845.19;;;14.18;100.00
51229;BME280;37304;52.216;6.874;2022-10-26T22:39:07;101849.50;;;14.22;100.00
51229;BME280;37304;52.216;6.874;2022-10-26T22:44:08;101854.75;;;14.21;100.00
51229;BME280;37304;52.216;6.874;2022-10-26T22:49:09;101860.19;;;14.08;100.00
51229;BME280;37304;52.216;6.874;2022-10-26T22:54:11;101859.41;;;14.03;100.00
51229;BME280;37304;52.216;6.874;2022-10-26T22:59:12;101860.25;;;14.04;100.00
51229;BME280;37304;52.216;6.874;2022-10-26T23:04:12;101871.63;;;14.01;100.00
51229;BME280;37304;52.216;6.874;2022-10-26T23:09:12;101874.34;;;13.93;100.00
51229;BME280;37304;52.216;6.874;2022-10-26T23:14:13;101868.28;;;13.91;100.00
51229;BME280;37304;52.216;6.874;2022-10-26T23:19:13;101879.66;;;13.86;100.00
51229;BME280;37304;52.216;6.874;2022-10-26T23:24:13;101895.31;;;13.87;100.00
51229;BME280;37304;52.216;6.874;2022-10-26T23:29:14;101904.91;;;13.88;100.00
51229;BME280;37304;52.216;6.874;2022-10-26T23:34:14;101899.63;;;13.90;100.00
51229;BME280;37304;52.216;6.874;2022-10-26T23:39:14;101895.22;;;13.95;100.00
51229;BME280;37304;52.216;6.874;2022-10-26T23:44:15;101906.56;;;13.92;100.00
51229;BME280;37304;52.216;6.874;2022-10-26T23:49:15;101913.69;;;13.81;100.00
51229;BME280;37304;52.216;6.874;2022-10-26T23:54:16;101912.72;;;13.88;100.00
51229;BME280;37304;52.216;6.874;2022-10-26T23:59:16;101919.66;;;13.92;100.00
